createdAt,value
2022-09-23T00:00:46.076Z,0
2022-09-23T00:02:00.402Z,0
2022-09-23T00:03:14.693Z,0
2022-09-23T00:04:28.971Z,0
2022-09-23T00:05:43.372Z,0
2022-09-23T00:06:57.690Z,0
2022-09-23T00:08:11.978Z,0
2022-09-23T00:09:26.306Z,0
2022-09-23T00:10:40.727Z,0
2022-09-23T00:11:55.065Z,0
2022-09-23T00:13:08.410Z,0
2022-09-23T00:14:22.690Z,0
2022-09-23T00:15:37.106Z,0
2022-09-23T00:16:51.427Z,0
2022-09-23T00:18:05.704Z,0
2022-09-23T00:19:19.979Z,0
2022-09-23T00:20:34.384Z,0
2022-09-23T00:21:48.708Z,0
2022-09-23T00:23:03.001Z,0
2022-09-23T00:24:17.274Z,0
2022-09-23T00:25:31.687Z,0
2022-09-23T00:26:46.013Z,0
2022-09-23T00:28:00.286Z,0
2022-09-23T00:29:14.560Z,0
2022-09-23T00:30:28.970Z,0
2022-09-23T00:31:43.295Z,0
2022-09-23T00:32:57.568Z,0
2022-09-23T00:34:11.853Z,0
2022-09-23T00:35:26.270Z,0
2022-09-23T00:36:40.593Z,0
2022-09-23T00:37:54.869Z,0
2022-09-23T00:39:09.147Z,0
2022-09-23T00:40:23.567Z,0
2022-09-23T00:41:37.871Z,0
2022-09-23T00:42:52.169Z,0
2022-09-23T00:44:06.498Z,0
2022-09-23T00:45:20.900Z,0
2022-09-23T00:46:35.243Z,0
2022-09-23T00:47:48.610Z,0
2022-09-23T00:49:02.885Z,0
2022-09-23T00:50:17.279Z,0
2022-09-23T00:51:31.612Z,0
2022-09-23T00:52:45.890Z,0
2022-09-23T00:54:00.173Z,0
2022-09-23T00:55:14.572Z,0
2022-09-23T00:56:28.902Z,0
2022-09-23T00:57:43.193Z,0
2022-09-23T00:58:57.470Z,0
2022-09-23T01:00:11.872Z,0
2022-09-23T01:01:26.198Z,0
2022-09-23T01:02:40.482Z,0
2022-09-23T01:03:54.758Z,0
2022-09-23T01:05:09.162Z,0
2022-09-23T01:06:23.483Z,0
2022-09-23T01:07:37.761Z,0
2022-09-23T01:08:52.058Z,0
2022-09-23T01:10:06.454Z,0
2022-09-23T01:11:20.773Z,0
2022-09-23T01:12:35.058Z,0
2022-09-23T01:13:49.350Z,0
2022-09-23T01:15:03.753Z,0
2022-09-23T01:16:18.074Z,0
2022-09-23T01:17:32.351Z,0
2022-09-23T01:18:46.694Z,0
2022-09-23T01:20:01.106Z,0
2022-09-23T01:21:15.428Z,0
2022-09-23T01:22:28.787Z,0
2022-09-23T01:23:43.074Z,0
2022-09-23T01:24:57.465Z,0
2022-09-23T01:26:11.802Z,0
2022-09-23T01:27:26.076Z,0
2022-09-23T01:28:40.354Z,0
2022-09-23T01:29:54.756Z,0
2022-09-23T01:31:09.091Z,0
2022-09-23T01:32:23.374Z,0
2022-09-23T01:33:37.657Z,0
2022-09-23T01:34:52.060Z,0
2022-09-23T01:36:06.373Z,0
2022-09-23T01:37:20.668Z,0
2022-09-23T01:38:34.946Z,0
2022-09-23T01:39:49.344Z,0
2022-09-23T01:41:03.668Z,0
2022-09-23T01:42:17.957Z,0
2022-09-23T01:43:32.245Z,0
2022-09-23T01:44:46.645Z,0
2022-09-23T01:46:00.961Z,0
2022-09-23T01:47:15.242Z,0
2022-09-23T01:48:29.526Z,0
2022-09-23T01:49:43.941Z,0
2022-09-23T01:50:58.258Z,0
2022-09-23T01:52:12.540Z,0
2022-09-23T01:53:26.876Z,0
2022-09-23T01:54:41.293Z,0
2022-09-23T01:55:55.627Z,0
2022-09-23T01:57:09.018Z,0
2022-09-23T01:58:23.356Z,0
2022-09-23T01:59:37.750Z,0
2022-09-23T02:00:52.090Z,0
2022-09-23T02:02:05.440Z,0
2022-09-23T02:03:19.713Z,0
2022-09-23T02:04:34.125Z,0
2022-09-23T02:05:48.442Z,0
2022-09-23T02:07:02.736Z,0
2022-09-23T02:08:17.013Z,0
2022-09-23T02:09:31.428Z,0
2022-09-23T02:10:45.748Z,0
2022-09-23T02:12:00.028Z,0
2022-09-23T02:13:14.307Z,0
2022-09-23T02:14:28.724Z,0
2022-09-23T02:15:43.044Z,0
2022-09-23T02:16:57.313Z,0
2022-09-23T02:18:11.589Z,0
2022-09-23T02:19:25.997Z,0
2022-09-23T02:20:40.337Z,0
2022-09-23T02:21:54.615Z,0
2022-09-23T02:23:08.891Z,0
2022-09-23T02:24:23.295Z,0
2022-09-23T02:25:37.628Z,0
2022-09-23T02:26:51.904Z,0
2022-09-23T02:28:06.179Z,0
2022-09-23T02:29:20.597Z,0
2022-09-23T02:30:34.920Z,0
2022-09-23T02:31:49.184Z,0
2022-09-23T02:33:03.543Z,0
2022-09-23T02:34:17.948Z,0
2022-09-23T02:35:32.269Z,0
2022-09-23T02:36:46.612Z,0
2022-09-23T02:37:59.965Z,0
2022-09-23T02:39:14.378Z,0
2022-09-23T02:40:28.701Z,0
2022-09-23T02:41:42.975Z,0
2022-09-23T02:42:57.249Z,0
2022-09-23T02:44:11.670Z,0
2022-09-23T02:45:25.988Z,0
2022-09-23T02:46:40.263Z,0
2022-09-23T02:47:54.553Z,0
2022-09-23T02:49:08.948Z,0
2022-09-23T02:50:23.269Z,0
2022-09-23T02:51:37.563Z,0
2022-09-23T02:52:51.844Z,0
2022-09-23T02:54:06.246Z,0
2022-09-23T02:55:20.563Z,0
2022-09-23T02:56:34.850Z,0
2022-09-23T02:57:49.132Z,0
2022-09-23T02:59:03.538Z,0
2022-09-23T03:00:17.865Z,0
2022-09-23T03:01:32.138Z,0
2022-09-23T03:02:46.416Z,0
2022-09-23T03:04:00.823Z,0
2022-09-23T03:05:15.162Z,0
2022-09-23T03:06:29.442Z,0
2022-09-23T03:07:43.720Z,0
2022-09-23T03:08:58.182Z,0
2022-09-23T03:10:12.511Z,0
2022-09-23T03:11:25.861Z,0
2022-09-23T03:12:40.157Z,0
2022-09-23T03:13:54.558Z,0
2022-09-23T03:15:08.878Z,0
2022-09-23T03:16:23.157Z,0
2022-09-23T03:17:37.439Z,0
2022-09-23T03:18:51.845Z,0
2022-09-23T03:20:06.168Z,0
2022-09-23T03:21:20.445Z,0
2022-09-23T03:22:34.734Z,0
2022-09-23T03:23:49.139Z,0
2022-09-23T03:25:03.469Z,0
2022-09-23T03:26:17.744Z,0
2022-09-23T03:27:32.029Z,0
2022-09-23T03:28:46.426Z,0
2022-09-23T03:30:00.754Z,0
2022-09-23T03:31:15.040Z,0
2022-09-23T03:32:29.321Z,0
2022-09-23T03:33:43.723Z,0
2022-09-23T03:34:58.053Z,0
2022-09-23T03:36:12.335Z,0
2022-09-23T03:37:26.618Z,0
2022-09-23T03:38:41.028Z,0
2022-09-23T03:39:55.333Z,0
2022-09-23T03:41:09.625Z,0
2022-09-23T03:42:23.971Z,0
2022-09-23T03:43:38.379Z,0
2022-09-23T03:44:52.710Z,0
2022-09-23T03:46:06.051Z,0
2022-09-23T03:47:20.342Z,0
2022-09-23T03:48:34.734Z,0
2022-09-23T03:49:49.063Z,0
2022-09-23T03:51:03.351Z,0
2022-09-23T03:52:17.622Z,0
2022-09-23T03:53:32.030Z,0
2022-09-23T03:54:46.355Z,0
2022-09-23T03:56:00.648Z,0
2022-09-23T03:57:14.911Z,0
2022-09-23T03:58:29.331Z,0
2022-09-23T03:59:43.653Z,0
2022-09-23T04:00:57.924Z,0
2022-09-23T04:02:12.215Z,0
2022-09-23T04:03:26.615Z,0
2022-09-23T04:04:40.950Z,0
2022-09-23T04:05:55.227Z,0
2022-09-23T04:07:09.500Z,0
2022-09-23T04:08:23.905Z,0
2022-09-23T04:09:38.237Z,0
2022-09-23T04:10:52.505Z,0
2022-09-23T04:12:06.798Z,0
2022-09-23T04:13:21.204Z,0
2022-09-23T04:14:35.519Z,0
2022-09-23T04:15:49.816Z,0
2022-09-23T04:17:04.137Z,0
2022-09-23T04:18:18.550Z,0
2022-09-23T04:19:32.895Z,0
2022-09-23T04:20:46.234Z,0
2022-09-23T04:22:00.514Z,0
2022-09-23T04:23:14.935Z,0
2022-09-23T04:24:29.246Z,0
2022-09-23T04:25:43.537Z,0
2022-09-23T04:26:57.805Z,0
2022-09-23T04:28:12.211Z,0
2022-09-23T04:29:26.543Z,0
2022-09-23T04:30:40.822Z,0
2022-09-23T04:31:55.104Z,0
2022-09-23T04:33:09.513Z,0
2022-09-23T04:34:23.830Z,0
2022-09-23T04:35:38.116Z,0
2022-09-23T04:36:52.396Z,0
2022-09-23T04:38:06.775Z,1
2022-09-23T04:39:21.020Z,1
2022-09-23T04:40:35.254Z,1
2022-09-23T04:41:49.470Z,1
2022-09-23T04:43:03.750Z,0
2022-09-23T04:44:18.170Z,0
2022-09-23T04:45:32.481Z,0
2022-09-23T04:46:46.722Z,2
2022-09-23T04:48:01.010Z,0
2022-09-23T04:49:15.369Z,1
2022-09-23T04:50:29.664Z,0
2022-09-23T04:51:43.944Z,2
2022-09-23T04:52:57.235Z,1
2022-09-23T04:55:25.787Z,3
2022-09-23T04:56:40.002Z,8
2022-09-23T04:57:54.241Z,10
2022-09-23T04:59:08.465Z,5
2022-09-23T05:00:22.769Z,9
2022-09-23T05:01:36.997Z,14
2022-09-23T05:02:51.222Z,18
2022-09-23T05:04:05.451Z,19
2022-09-23T05:05:19.681Z,22
2022-09-23T05:06:33.979Z,30
2022-09-23T05:07:48.233Z,35
2022-09-23T05:09:02.453Z,43
2022-09-23T05:10:16.679Z,52
2022-09-23T05:11:30.910Z,53
2022-09-23T05:12:45.202Z,62
2022-09-23T05:13:59.442Z,74
2022-09-23T05:15:13.664Z,84
2022-09-23T05:16:27.896Z,94
2022-09-23T05:17:42.123Z,99
2022-09-23T05:18:56.434Z,110
2022-09-23T05:20:10.673Z,124
2022-09-23T05:21:24.888Z,139
2022-09-23T05:22:39.125Z,149
2022-09-23T05:23:53.405Z,157
2022-09-23T05:25:07.696Z,170
2022-09-23T05:26:21.986Z,187
2022-09-23T05:27:35.283Z,202
2022-09-23T05:28:49.520Z,211
2022-09-23T05:30:03.817Z,226
2022-09-23T05:31:18.058Z,243
2022-09-23T05:32:32.290Z,267
2022-09-23T05:33:46.501Z,286
2022-09-23T05:35:00.727Z,294
2022-09-23T05:36:15.044Z,322
2022-09-23T05:37:29.275Z,346
2022-09-23T05:38:43.497Z,377
2022-09-23T05:39:57.732Z,420
2022-09-23T05:41:11.947Z,427
2022-09-23T05:42:26.254Z,469
2022-09-23T05:43:40.499Z,510
2022-09-23T05:44:54.729Z,543
2022-09-23T05:46:08.956Z,584
2022-09-23T05:47:23.181Z,593
2022-09-23T05:48:37.484Z,628
2022-09-23T05:49:51.716Z,664
2022-09-23T05:51:05.951Z,700
2022-09-23T05:52:20.170Z,727
2022-09-23T05:53:34.391Z,739
2022-09-23T05:54:48.700Z,776
2022-09-23T05:56:02.941Z,795
2022-09-23T05:57:17.160Z,826
2022-09-23T05:58:31.454Z,845
2022-09-23T05:59:44.781Z,857
2022-09-23T06:00:59.079Z,889
2022-09-23T06:02:12.355Z,919
2022-09-23T06:03:26.590Z,936
2022-09-23T06:04:40.898Z,976
2022-09-23T06:05:55.132Z,1018
2022-09-23T06:07:09.362Z,1066
2022-09-23T06:08:23.000Z,1124
2022-09-23T06:09:37.816Z,1155
2022-09-23T06:10:52.116Z,1224
2022-09-23T06:12:06.359Z,1282
2022-09-23T06:13:20.579Z,1327
2022-09-23T06:14:34.816Z,1347
2022-09-23T06:15:49.043Z,1360
2022-09-23T06:17:03.343Z,1382
2022-09-23T06:18:17.579Z,1388
2022-09-23T06:19:31.797Z,1397
2022-09-23T06:20:46.035Z,1414
2022-09-23T06:22:00.260Z,1415
2022-09-23T06:23:14.552Z,1448
2022-09-23T06:24:28.806Z,1456
2022-09-23T06:25:43.028Z,1459
2022-09-23T06:26:57.244Z,1466
2022-09-23T06:28:11.485Z,1459
2022-09-23T06:29:25.784Z,1448
2022-09-23T06:30:40.015Z,1428
2022-09-23T06:31:54.252Z,1427
2022-09-23T06:33:08.525Z,1419
2022-09-23T06:34:21.822Z,1422
2022-09-23T06:35:36.065Z,1442
2022-09-23T06:36:50.287Z,1452
2022-09-23T06:38:04.526Z,1481
2022-09-23T06:39:18.756Z,1492
2022-09-23T06:40:33.038Z,1520
2022-09-23T06:41:47.290Z,1552
2022-09-23T06:43:01.522Z,1604
2022-09-23T06:44:15.749Z,1606
2022-09-23T06:45:29.976Z,1611
2022-09-23T06:46:44.263Z,1631
2022-09-23T06:47:58.502Z,1646
2022-09-23T06:49:12.737Z,1667
2022-09-23T06:50:26.959Z,1699
2022-09-23T06:51:41.184Z,1684
2022-09-23T06:52:55.481Z,1714
2022-09-23T06:54:09.724Z,1757
2022-09-23T06:55:23.968Z,1793
2022-09-23T06:56:38.182Z,1828
2022-09-23T06:57:52.403Z,1953
2022-09-23T06:59:06.704Z,1941
2022-09-23T07:00:20.962Z,1994
2022-09-23T07:01:35.177Z,2015
2022-09-23T07:02:49.410Z,2101
2022-09-23T07:04:03.628Z,2046
2022-09-23T07:05:17.988Z,2090
2022-09-23T07:06:32.282Z,2037
2022-09-23T07:07:45.564Z,2063
2022-09-23T07:08:59.801Z,2048
2022-09-23T07:10:14.102Z,2101
2022-09-23T07:11:28.335Z,2158
2022-09-23T07:12:42.572Z,2181
2022-09-23T07:13:56.793Z,2147
2022-09-23T07:15:11.013Z,2138
2022-09-23T07:16:25.328Z,2132
2022-09-23T07:17:39.560Z,2151
2022-09-23T07:18:53.793Z,2229
2022-09-23T07:20:08.023Z,2321
2022-09-23T07:21:22.243Z,2373
2022-09-23T07:22:36.542Z,2407
2022-09-23T07:23:50.791Z,2519
2022-09-23T07:25:05.014Z,2508
2022-09-23T07:26:19.228Z,2511
2022-09-23T07:27:33.464Z,2448
2022-09-23T07:28:47.763Z,2603
2022-09-23T07:30:02.006Z,2707
2022-09-23T07:31:16.240Z,2876
2022-09-23T07:32:30.454Z,2937
2022-09-23T07:33:44.690Z,2992
2022-09-23T07:34:58.987Z,3008
2022-09-23T07:36:13.230Z,3050
2022-09-23T07:37:27.460Z,3084
2022-09-23T07:38:41.740Z,3113
2022-09-23T07:39:55.066Z,3134
2022-09-23T07:41:09.356Z,3140
2022-09-23T07:42:22.652Z,3142
2022-09-23T07:43:36.876Z,3137
2022-09-23T07:44:51.187Z,3239
2022-09-23T07:46:05.413Z,3257
2022-09-23T07:47:19.645Z,3244
2022-09-23T07:48:33.869Z,3232
2022-09-23T07:49:48.088Z,3235
2022-09-23T07:51:02.397Z,3251
2022-09-23T07:52:16.645Z,3309
2022-09-23T07:53:30.857Z,3366
2022-09-23T07:54:45.102Z,3438
2022-09-23T07:55:59.315Z,3457
2022-09-23T07:57:13.620Z,3598
2022-09-23T07:58:27.853Z,3776
2022-09-23T07:59:42.090Z,3886
2022-09-23T08:00:56.317Z,3996
2022-09-23T08:02:10.538Z,3964
2022-09-23T08:03:24.842Z,4168
2022-09-23T08:04:39.093Z,4330
2022-09-23T08:05:53.313Z,4426
2022-09-23T08:07:07.546Z,4524
2022-09-23T08:08:21.761Z,4459
2022-09-23T08:09:36.061Z,4558
2022-09-23T08:10:50.300Z,4727
2022-09-23T08:12:04.540Z,4753
2022-09-23T08:13:18.824Z,4840
2022-09-23T08:14:32.157Z,4826
2022-09-23T08:15:46.436Z,5063
2022-09-23T08:16:59.724Z,5634
2022-09-23T08:18:13.956Z,9647
2022-09-23T08:19:28.263Z,12863
2022-09-23T08:20:42.490Z,10021
2022-09-23T08:21:56.725Z,14358
2022-09-23T08:23:10.947Z,15241
2022-09-23T08:24:25.182Z,15867
2022-09-23T08:25:39.479Z,18852
2022-09-23T08:26:53.717Z,17919
2022-09-23T08:28:07.951Z,19295
2022-09-23T08:29:22.164Z,22093
2022-09-23T08:30:36.390Z,21784
2022-09-23T08:31:50.700Z,27418
2022-09-23T08:33:04.949Z,29987
2022-09-23T08:34:19.165Z,74937
2022-09-23T08:35:33.383Z,75391
2022-09-23T08:38:01.917Z,77543
2022-09-23T08:39:16.150Z,76574
2022-09-23T08:40:30.385Z,78185
2022-09-23T08:41:44.621Z,74508
2022-09-23T08:42:58.830Z,30729
2022-09-23T08:44:13.143Z,28557
2022-09-23T08:45:27.389Z,77794
2022-09-23T08:46:41.614Z,80070
2022-09-23T08:47:55.896Z,79204
2022-09-23T08:49:09.191Z,74179
2022-09-23T08:50:23.437Z,17805
2022-09-23T08:51:37.656Z,28881
2022-09-23T08:52:51.885Z,28776
2022-09-23T08:54:06.102Z,27022
2022-09-23T08:55:20.400Z,25646
2022-09-23T08:56:34.642Z,23335
2022-09-23T08:57:48.875Z,21861
2022-09-23T08:59:03.093Z,20724
2022-09-23T09:00:17.331Z,20541
2022-09-23T09:01:31.622Z,20845
2022-09-23T09:02:45.863Z,18067
2022-09-23T09:04:00.092Z,15936
2022-09-23T09:05:14.321Z,16115
2022-09-23T09:06:28.554Z,16840
2022-09-23T09:07:42.845Z,15031
2022-09-23T09:08:57.094Z,13971
2022-09-23T09:10:11.315Z,14662
2022-09-23T09:11:25.548Z,16058
2022-09-23T09:12:39.771Z,15621
2022-09-23T09:15:08.308Z,20791
2022-09-23T09:16:22.546Z,16703
2022-09-23T09:18:50.983Z,16382
2022-09-23T09:20:05.355Z,14481
2022-09-23T09:21:19.642Z,13352
2022-09-23T09:22:32.961Z,13879
2022-09-23T09:25:00.000Z,10019
2022-09-23T09:26:14.726Z,12160
2022-09-23T09:27:28.963Z,10980
2022-09-23T09:28:43.181Z,11030
2022-09-23T09:29:57.479Z,11422
2022-09-23T09:31:11.723Z,10727
2022-09-23T09:32:25.955Z,9483
2022-09-23T09:33:40.187Z,8383
2022-09-23T09:34:54.408Z,8136
2022-09-23T09:36:08.705Z,7964
2022-09-23T09:37:22.950Z,7635
2022-09-23T09:38:37.180Z,7347
2022-09-23T09:39:51.395Z,7212
2022-09-23T09:41:05.634Z,7273
2022-09-23T09:42:19.927Z,7078
2022-09-23T09:43:34.170Z,7065
2022-09-23T09:44:48.399Z,7036
2022-09-23T09:46:02.629Z,7040
2022-09-23T09:47:16.849Z,7057
2022-09-23T09:48:31.153Z,7025
2022-09-23T09:49:45.395Z,7122
2022-09-23T09:50:59.606Z,6989
2022-09-23T09:52:13.850Z,7111
2022-09-23T09:53:28.065Z,6924
2022-09-23T09:54:42.434Z,7035
2022-09-23T09:55:56.713Z,7068
2022-09-23T09:57:10.012Z,7124
2022-09-23T09:58:24.246Z,7119
2022-09-23T09:59:38.538Z,7662
2022-09-23T10:00:52.780Z,7808
2022-09-23T10:02:07.011Z,8205
2022-09-23T10:03:21.233Z,8689
2022-09-23T10:04:35.454Z,9294
2022-09-23T10:05:49.767Z,8740
2022-09-23T10:07:03.991Z,8743
2022-09-23T10:08:18.228Z,8612
2022-09-23T10:09:32.457Z,8351
2022-09-23T10:10:46.679Z,8326
2022-09-23T10:12:00.987Z,8047
2022-09-23T10:13:15.214Z,8211
2022-09-23T10:14:29.445Z,8132
2022-09-23T10:15:43.674Z,8255
2022-09-23T10:16:57.904Z,8438
2022-09-23T10:18:12.189Z,8477
2022-09-23T10:19:26.444Z,8742
2022-09-23T10:20:40.673Z,8275
2022-09-23T10:21:54.897Z,8403
2022-09-23T10:23:09.123Z,8433
2022-09-23T10:24:23.426Z,8847
2022-09-23T10:25:37.651Z,9458
2022-09-23T10:26:51.888Z,9622
2022-09-23T10:28:06.178Z,9247
2022-09-23T10:29:19.493Z,8842
2022-09-23T10:30:33.795Z,8624
2022-09-23T10:31:47.070Z,8739
2022-09-23T10:33:01.309Z,8657
2022-09-23T10:34:15.608Z,8808
2022-09-23T10:35:29.854Z,8993
2022-09-23T10:36:44.069Z,9070
2022-09-23T10:37:58.311Z,8985
2022-09-23T10:39:12.538Z,9005
2022-09-23T10:40:26.833Z,9522
2022-09-23T10:41:41.073Z,9321
2022-09-23T10:42:55.298Z,9567
2022-09-23T10:44:09.519Z,9806
2022-09-23T10:45:23.755Z,10171
2022-09-23T10:46:38.050Z,10610
2022-09-23T10:47:52.284Z,10173
2022-09-23T10:49:06.525Z,9799
2022-09-23T10:50:20.737Z,9680
2022-09-23T10:51:34.960Z,9647
2022-09-23T10:52:49.269Z,9157
2022-09-23T10:54:03.515Z,9160
2022-09-23T10:55:17.734Z,9030
2022-09-23T10:56:31.967Z,8765
2022-09-23T10:57:46.187Z,8651
2022-09-23T10:59:00.483Z,8184
2022-09-23T11:00:14.725Z,7637
2022-09-23T11:02:43.244Z,7047
2022-09-23T11:03:56.576Z,7088
2022-09-23T11:05:10.859Z,7082
2022-09-23T11:06:24.157Z,7037
2022-09-23T11:07:38.375Z,7056
2022-09-23T11:08:52.681Z,7170
2022-09-23T11:10:06.910Z,6940
2022-09-23T11:11:21.142Z,6981
2022-09-23T11:12:35.374Z,7109
2022-09-23T11:13:49.596Z,7018
2022-09-23T11:15:03.898Z,7067
2022-09-23T11:16:18.129Z,7100
2022-09-23T11:17:32.358Z,7356
2022-09-23T11:18:46.589Z,7561
2022-09-23T11:20:00.823Z,7876
2022-09-23T11:21:15.123Z,7973
2022-09-23T11:22:29.365Z,8086
2022-09-23T11:23:43.581Z,8123
2022-09-23T11:24:57.803Z,8068
2022-09-23T11:26:12.038Z,8001
2022-09-23T11:27:26.333Z,7580
2022-09-23T11:28:40.574Z,7585
2022-09-23T11:29:54.806Z,7442
2022-09-23T11:31:09.028Z,7078
2022-09-23T11:32:23.261Z,7036
2022-09-23T11:33:37.552Z,6839
2022-09-23T11:34:51.795Z,6679
2022-09-23T11:36:06.031Z,6575
2022-09-23T11:37:20.318Z,6468
2022-09-23T11:39:47.849Z,6519
2022-09-23T11:41:02.081Z,6456
2022-09-23T11:42:16.299Z,6470
2022-09-23T11:43:30.524Z,6501
2022-09-23T11:44:44.816Z,6613
2022-09-23T11:45:59.071Z,6884
2022-09-23T11:47:13.292Z,7019
2022-09-23T11:48:27.529Z,7407
2022-09-23T11:49:41.754Z,7620
2022-09-23T11:50:56.043Z,7541
2022-09-23T11:52:10.282Z,8043
2022-09-23T11:53:24.519Z,8175
2022-09-23T11:55:52.963Z,8793
2022-09-23T11:57:07.261Z,8611
2022-09-23T11:58:21.508Z,8586
2022-09-23T11:59:35.730Z,8844
2022-09-23T12:00:49.963Z,9203
2022-09-23T12:02:04.178Z,9599
2022-09-23T12:03:18.494Z,10423
2022-09-23T12:04:32.733Z,12054
2022-09-23T12:05:46.948Z,13461
2022-09-23T12:07:01.179Z,14381
2022-09-23T12:08:15.408Z,14777
2022-09-23T12:09:29.778Z,13894
2022-09-23T12:10:44.047Z,15331
2022-09-23T12:11:57.346Z,16608
2022-09-23T12:13:11.583Z,16845
2022-09-23T12:14:25.867Z,14593
2022-09-23T12:15:40.111Z,13582
2022-09-23T12:16:54.339Z,12970
2022-09-23T12:18:08.569Z,12137
2022-09-23T12:19:22.797Z,11965
2022-09-23T12:20:37.092Z,11654
2022-09-23T12:21:51.342Z,11643
2022-09-23T12:23:05.564Z,11316
2022-09-23T12:24:19.789Z,10882
2022-09-23T12:25:34.015Z,11298
2022-09-23T12:26:48.310Z,12548
2022-09-23T12:28:02.560Z,13769
2022-09-23T12:29:16.782Z,12502
2022-09-23T12:30:31.006Z,12100
2022-09-23T12:31:45.241Z,12095
2022-09-23T12:32:59.537Z,13537
2022-09-23T12:34:13.000Z,14471
2022-09-23T12:35:28.013Z,15490
2022-09-23T12:36:42.239Z,15154
2022-09-23T12:37:56.461Z,15614
2022-09-23T12:39:10.748Z,15613
2022-09-23T12:40:24.988Z,14554
2022-09-23T12:41:39.230Z,14116
2022-09-23T12:42:53.504Z,12545
2022-09-23T12:44:07.793Z,12637
2022-09-23T12:45:22.091Z,12821
2022-09-23T12:46:36.377Z,11571
2022-09-23T12:47:49.675Z,11227
2022-09-23T12:49:03.895Z,11279
2022-09-23T12:50:18.208Z,10548
2022-09-23T12:51:32.444Z,9505
2022-09-23T12:52:46.670Z,8920
2022-09-23T12:54:00.891Z,8468
2022-09-23T12:55:15.120Z,8429
2022-09-23T12:56:29.417Z,7663
2022-09-23T12:57:43.655Z,7647
2022-09-23T12:58:57.894Z,7536
2022-09-23T13:00:12.120Z,7485
2022-09-23T13:01:26.346Z,6916
2022-09-23T13:02:40.643Z,7016
2022-09-23T13:03:54.880Z,6794
2022-09-23T13:05:09.114Z,6706
2022-09-23T13:06:23.336Z,6648
2022-09-23T13:07:37.569Z,6613
2022-09-23T13:08:51.852Z,6867
2022-09-23T13:10:06.095Z,6617
2022-09-23T13:11:20.323Z,6480
2022-09-23T13:12:34.563Z,6469
2022-09-23T13:13:48.776Z,6354
2022-09-23T13:15:03.090Z,6241
2022-09-23T13:16:17.318Z,6086
2022-09-23T13:17:31.541Z,5828
2022-09-23T13:18:45.833Z,5681
2022-09-23T13:19:59.129Z,5556
2022-09-23T13:21:13.367Z,5435
2022-09-23T13:22:27.602Z,5378
2022-09-23T13:23:41.825Z,5399
2022-09-23T13:24:56.055Z,5368
2022-09-23T13:26:10.353Z,5631
2022-09-23T13:27:24.596Z,5710
2022-09-23T13:28:38.825Z,6005
2022-09-23T13:29:53.048Z,6005
2022-09-23T13:31:07.261Z,5967
2022-09-23T13:32:21.565Z,6065
2022-09-23T13:33:35.807Z,5962
2022-09-23T13:34:50.041Z,5937
2022-09-23T13:36:04.254Z,5920
2022-09-23T13:37:18.494Z,5904
2022-09-23T13:38:32.790Z,5790
2022-09-23T13:39:47.033Z,5621
2022-09-23T13:41:01.264Z,5428
2022-09-23T13:42:15.475Z,5111
2022-09-23T13:43:29.705Z,5414
2022-09-23T13:44:44.000Z,5193
2022-09-23T13:45:58.249Z,5050
2022-09-23T13:47:12.470Z,4952
2022-09-23T13:48:26.706Z,4747
2022-09-23T13:49:40.926Z,4701
2022-09-23T13:50:55.283Z,4616
2022-09-23T13:52:09.582Z,4447
2022-09-23T13:53:22.934Z,4268
2022-09-23T13:54:36.261Z,4288
2022-09-23T13:55:50.545Z,4184
2022-09-23T13:57:03.845Z,4122
2022-09-23T13:58:18.054Z,4144
2022-09-23T13:59:32.370Z,4075
2022-09-23T14:00:46.597Z,4146
2022-09-23T14:02:00.823Z,4133
2022-09-23T14:03:15.050Z,4293
2022-09-23T14:04:29.285Z,4270
2022-09-23T14:05:43.586Z,4485
2022-09-23T14:06:57.822Z,4731
2022-09-23T14:08:12.053Z,4811
2022-09-23T14:09:26.276Z,4939
2022-09-23T14:10:40.498Z,5002
2022-09-23T14:11:54.798Z,5066
2022-09-23T14:13:09.044Z,5089
2022-09-23T14:14:23.261Z,5059
2022-09-23T14:15:37.488Z,4999
2022-09-23T14:16:51.720Z,4968
2022-09-23T14:18:06.018Z,4924
2022-09-23T14:19:20.268Z,4765
2022-09-23T14:20:34.496Z,4596
2022-09-23T14:21:48.723Z,4479
2022-09-23T14:23:02.945Z,4451
2022-09-23T14:24:17.241Z,4351
2022-09-23T14:25:31.482Z,4234
2022-09-23T14:26:45.703Z,4213
2022-09-23T14:27:59.990Z,4269
2022-09-23T14:29:13.347Z,4279
2022-09-23T14:30:27.615Z,4411
2022-09-23T14:31:40.922Z,4572
2022-09-23T14:32:55.132Z,4657
2022-09-23T14:34:09.435Z,4849
2022-09-23T14:35:23.688Z,4859
2022-09-23T14:36:37.904Z,4860
2022-09-23T14:37:52.140Z,4791
2022-09-23T14:39:06.371Z,4765
2022-09-23T14:40:20.656Z,4691
2022-09-23T14:41:34.897Z,4631
2022-09-23T14:42:49.126Z,4556
2022-09-23T14:44:03.361Z,4498
2022-09-23T14:45:17.585Z,4499
2022-09-23T14:46:31.875Z,4394
2022-09-23T14:47:46.120Z,4234
2022-09-23T14:49:00.359Z,4014
2022-09-23T14:50:14.578Z,3765
2022-09-23T14:51:28.798Z,3625
2022-09-23T14:52:43.112Z,3362
2022-09-23T14:53:57.350Z,3015
2022-09-23T14:55:11.573Z,2787
2022-09-23T14:56:25.805Z,2590
2022-09-23T14:57:40.027Z,2542
2022-09-23T14:58:54.319Z,2475
2022-09-23T15:00:08.561Z,2426
2022-09-23T15:01:22.790Z,2313
2022-09-23T15:02:37.076Z,2305
2022-09-23T15:03:51.355Z,2298
2022-09-23T15:05:05.655Z,2317
2022-09-23T15:06:19.935Z,2301
2022-09-23T15:07:33.246Z,2233
2022-09-23T15:08:47.469Z,2154
2022-09-23T15:10:01.769Z,1954
2022-09-23T15:11:16.005Z,1825
2022-09-23T15:12:30.224Z,1753
2022-09-23T15:13:44.455Z,1718
2022-09-23T15:14:58.676Z,1682
2022-09-23T15:16:12.984Z,1658
2022-09-23T15:17:27.225Z,1669
2022-09-23T15:18:41.452Z,1696
2022-09-23T15:19:55.687Z,1733
2022-09-23T15:21:09.911Z,1741
2022-09-23T15:22:24.204Z,1769
2022-09-23T15:23:38.438Z,1826
2022-09-23T15:24:52.671Z,1855
2022-09-23T15:26:06.891Z,1862
2022-09-23T15:27:21.128Z,1865
2022-09-23T15:28:35.428Z,1869
2022-09-23T15:29:49.663Z,1863
2022-09-23T15:31:03.900Z,1858
2022-09-23T15:32:18.121Z,1884
2022-09-23T15:33:32.355Z,1897
2022-09-23T15:34:46.648Z,1959
2022-09-23T15:36:00.891Z,2054
2022-09-23T15:37:15.120Z,2124
2022-09-23T15:38:29.406Z,2164
2022-09-23T15:39:42.739Z,2169
2022-09-23T15:40:57.011Z,2137
2022-09-23T15:42:10.318Z,2094
2022-09-23T15:43:24.544Z,2074
2022-09-23T15:44:38.844Z,2067
2022-09-23T15:45:53.076Z,2055
2022-09-23T15:47:07.296Z,2014
2022-09-23T15:48:21.531Z,1966
2022-09-23T15:49:35.751Z,1933
2022-09-23T15:50:50.062Z,1887
2022-09-23T15:52:04.307Z,1850
2022-09-23T15:53:18.520Z,1743
2022-09-23T15:54:32.746Z,1693
2022-09-23T15:55:46.980Z,1680
2022-09-23T15:57:01.278Z,1660
2022-09-23T15:58:15.514Z,1625
2022-09-23T15:59:29.748Z,1599
2022-09-23T16:00:43.969Z,1591
2022-09-23T16:01:58.195Z,1586
2022-09-23T16:03:12.488Z,1569
2022-09-23T16:04:26.731Z,1522
2022-09-23T16:05:40.966Z,1479
2022-09-23T16:06:55.192Z,1436
2022-09-23T16:08:09.406Z,1417
2022-09-23T16:09:23.710Z,1368
2022-09-23T16:10:37.949Z,1332
2022-09-23T16:11:52.176Z,1309
2022-09-23T16:13:06.462Z,1292
2022-09-23T16:14:19.762Z,1294
2022-09-23T16:15:33.999Z,1280
2022-09-23T16:16:48.241Z,1260
2022-09-23T16:18:02.453Z,1220
2022-09-23T16:19:16.681Z,1207
2022-09-23T16:20:30.989Z,1145
2022-09-23T16:21:45.225Z,1082
2022-09-23T16:22:59.458Z,1025
2022-09-23T16:24:13.687Z,977
2022-09-23T16:25:27.901Z,966
2022-09-23T16:26:42.213Z,916
2022-09-23T16:29:10.663Z,827
2022-09-23T16:30:24.906Z,796
2022-09-23T16:31:39.124Z,788
2022-09-23T16:32:53.425Z,766
2022-09-23T16:34:07.668Z,738
2022-09-23T16:35:21.895Z,707
2022-09-23T16:36:36.114Z,676
2022-09-23T16:37:50.346Z,661
2022-09-23T16:39:04.650Z,626
2022-09-23T16:40:18.879Z,584
2022-09-23T16:41:33.110Z,547
2022-09-23T16:42:47.339Z,519
2022-09-23T16:44:01.562Z,506
2022-09-23T16:45:15.918Z,476
2022-09-23T16:46:30.200Z,447
2022-09-23T16:47:43.542Z,421
2022-09-23T16:48:56.840Z,409
2022-09-23T16:50:11.067Z,381
2022-09-23T16:51:25.298Z,354
2022-09-23T16:52:39.534Z,331
2022-09-23T16:53:53.754Z,320
2022-09-23T16:55:08.057Z,288
2022-09-23T16:56:22.284Z,259
2022-09-23T16:57:36.526Z,239
2022-09-23T16:58:50.747Z,223
2022-09-23T17:00:04.971Z,215
2022-09-23T17:01:19.276Z,211
2022-09-23T17:02:33.506Z,197
2022-09-23T17:03:47.748Z,192
2022-09-23T17:05:01.967Z,184
2022-09-23T17:06:16.198Z,186
2022-09-23T17:07:30.486Z,171
2022-09-23T17:08:44.723Z,161